sensor_id;sensor_type;location;lat;lon;timestamp;pressure;altitude;pressure_sealevel;temperature;humidity
39487;BME280;25173;50.430;18.926;2023-02-28T00:02:10;99453.47;;;6.14;43.73
39487;BME280;25173;50.430;18.926;2023-02-28T00:05:14;99462.19;;;6.10;43.73
39487;BME280;25173;50.430;18.926;2023-02-28T00:08:15;99449.94;;;6.07;43.62
39487;BME280;25173;50.430;18.926;2023-02-28T00:11:16;99456.41;;;6.00;43.76
39487;BME280;25173;50.430;18.926;2023-02-28T00:14:17;99460.38;;;5.97;43.78
39487;BME280;25173;50.430;18.926;2023-02-28T00:17:17;99458.09;;;5.94;43.96
39487;BME280;25173;50.430;18.926;2023-02-28T00:20:21;99465.19;;;5.89;43.78
39487;BME280;25173;50.430;18.926;2023-02-28T00:23:22;99465.81;;;5.77;43.70
39487;BME280;25173;50.430;18.926;2023-02-28T00:26:22;99461.69;;;5.55;43.74
39487;BME280;25173;50.430;18.926;2023-02-28T00:29:23;99464.59;;;5.40;44.09
39487;BME280;25173;50.430;18.926;2023-02-28T00:32:24;99462.72;;;5.28;44.29
39487;BME280;25173;50.430;18.926;2023-02-28T00:35:25;99461.28;;;5.19;44.29
39487;BME280;25173;50.430;18.926;2023-02-28T00:38:25;99459.59;;;5.04;44.29
39487;BME280;25173;50.430;18.926;2023-02-28T00:41:28;99466.44;;;4.87;44.68
39487;BME280;25173;50.430;18.926;2023-02-28T00:44:29;99455.63;;;4.74;44.73
39487;BME280;25173;50.430;18.926;2023-02-28T00:47:30;99461.22;;;4.66;44.98
39487;BME280;25173;50.430;18.926;2023-02-28T00:50:31;99458.91;;;4.63;45.12
39487;BME280;25173;50.430;18.926;2023-02-28T00:53:31;99460.97;;;4.61;45.33
39487;BME280;25173;50.430;18.926;2023-02-28T00:56:33;99467.66;;;4.65;45.40
39487;BME280;25173;50.430;18.926;2023-02-28T00:59:34;99464.94;;;4.65;45.49
39487;BME280;25173;50.430;18.926;2023-02-28T01:02:35;99463.69;;;4.61;45.33
39487;BME280;25173;50.430;18.926;2023-02-28T01:05:35;99470.34;;;4.58;45.64
39487;BME280;25173;50.430;18.926;2023-02-28T01:08:36;99462.81;;;4.54;45.56
39487;BME280;25173;50.430;18.926;2023-02-28T01:11:37;99453.06;;;4.53;45.70
39487;BME280;25173;50.430;18.926;2023-02-28T01:14:38;99462.00;;;4.53;45.98
39487;BME280;25173;50.430;18.926;2023-02-28T01:17:38;99462.63;;;4.49;45.89
39487;BME280;25173;50.430;18.926;2023-02-28T01:20:39;99471.09;;;4.46;46.12
39487;BME280;25173;50.430;18.926;2023-02-28T01:23:40;99466.72;;;4.45;46.24
39487;BME280;25173;50.430;18.926;2023-02-28T01:26:41;99460.56;;;4.51;46.67
39487;BME280;25173;50.430;18.926;2023-02-28T01:29:42;99458.91;;;4.63;46.44
39487;BME280;25173;50.430;18.926;2023-02-28T01:32:43;99462.66;;;4.68;46.15
39487;BME280;25173;50.430;18.926;2023-02-28T01:35:44;99470.56;;;4.70;46.33
39487;BME280;25173;50.430;18.926;2023-02-28T01:38:45;99461.84;;;4.75;46.41
39487;BME280;25173;50.430;18.926;2023-02-28T01:41:45;99469.53;;;4.78;46.50
39487;BME280;25173;50.430;18.926;2023-02-28T01:48:05;99467.47;;;4.93;46.49
39487;BME280;25173;50.430;18.926;2023-02-28T01:51:14;99462.09;;;4.99;46.48
39487;BME280;25173;50.430;18.926;2023-02-28T01:54:18;99457.72;;;5.05;46.32
39487;BME280;25173;50.430;18.926;2023-02-28T01:57:24;99454.81;;;5.06;46.02
39487;BME280;25173;50.430;18.926;2023-02-28T02:00:28;99457.31;;;5.01;46.10
39487;BME280;25173;50.430;18.926;2023-02-28T02:03:30;99447.75;;;4.99;46.20
39487;BME280;25173;50.430;18.926;2023-02-28T02:06:38;99440.94;;;4.96;46.13
39487;BME280;25173;50.430;18.926;2023-02-28T02:09:44;99446.53;;;4.88;46.05
39487;BME280;25173;50.430;18.926;2023-02-28T02:36:26;99443.59;;;4.09;46.72
39487;BME280;25173;50.430;18.926;2023-02-28T02:40:12;99445.41;;;4.02;46.70
39487;BME280;25173;50.430;18.926;2023-02-28T02:42:57;99449.94;;;3.95;46.85
39487;BME280;25173;50.430;18.926;2023-02-28T02:46:10;99447.03;;;3.90;47.13
39487;BME280;25173;50.430;18.926;2023-02-28T02:49:17;99447.41;;;3.87;47.17
39487;BME280;25173;50.430;18.926;2023-02-28T02:52:24;99451.75;;;3.81;47.17
39487;BME280;25173;50.430;18.926;2023-02-28T02:55:27;99443.63;;;3.75;47.31
39487;BME280;25173;50.430;18.926;2023-02-28T02:58:32;99449.63;;;3.70;47.31
39487;BME280;25173;50.430;18.926;2023-02-28T03:01:36;99450.19;;;3.66;47.16
39487;BME280;25173;50.430;18.926;2023-02-28T03:04:42;99449.16;;;3.60;47.21
39487;BME280;25173;50.430;18.926;2023-02-28T03:07:44;99449.69;;;3.49;47.40
39487;BME280;25173;50.430;18.926;2023-02-28T03:10:51;99439.28;;;3.39;47.59
39487;BME280;25173;50.430;18.926;2023-02-28T03:26:58;99452.88;;;3.03;47.79
39487;BME280;25173;50.430;18.926;2023-02-28T03:30:06;99450.38;;;3.02;47.88
39487;BME280;25173;50.430;18.926;2023-02-28T03:36:27;99458.69;;;2.86;48.19
39487;BME280;25173;50.430;18.926;2023-02-28T03:39:56;99459.47;;;2.80;48.61
39487;BME280;25173;50.430;18.926;2023-02-28T03:43:03;99462.16;;;2.80;48.47
39487;BME280;25173;50.430;18.926;2023-02-28T03:46:10;99462.34;;;2.78;48.65
39487;BME280;25173;50.430;18.926;2023-02-28T03:49:22;99461.97;;;2.81;48.68
39487;BME280;25173;50.430;18.926;2023-02-28T03:52:30;99464.03;;;2.79;48.45
39487;BME280;25173;50.430;18.926;2023-02-28T03:55:41;99461.88;;;2.74;48.66
39487;BME280;25173;50.430;18.926;2023-02-28T04:01:49;99467.84;;;2.70;48.88
39487;BME280;25173;50.430;18.926;2023-02-28T04:04:50;99469.72;;;2.69;48.93
39487;BME280;25173;50.430;18.926;2023-02-28T04:07:51;99466.38;;;2.67;49.02
39487;BME280;25173;50.430;18.926;2023-02-28T04:11:02;99470.53;;;2.70;48.98
39487;BME280;25173;50.430;18.926;2023-02-28T04:14:05;99469.66;;;2.63;48.87
39487;BME280;25173;50.430;18.926;2023-02-28T04:17:06;99472.53;;;2.61;49.03
39487;BME280;25173;50.430;18.926;2023-02-28T04:20:08;99472.91;;;2.58;49.03
39487;BME280;25173;50.430;18.926;2023-02-28T04:23:09;99474.97;;;2.56;49.22
39487;BME280;25173;50.430;18.926;2023-02-28T04:26:10;99472.25;;;2.56;48.98
39487;BME280;25173;50.430;18.926;2023-02-28T04:29:13;99478.28;;;2.58;49.15
39487;BME280;25173;50.430;18.926;2023-02-28T04:32:14;99477.13;;;2.67;49.08
39487;BME280;25173;50.430;18.926;2023-02-28T04:35:14;99480.03;;;2.66;48.82
39487;BME280;25173;50.430;18.926;2023-02-28T04:38:15;99474.19;;;2.62;48.89
39487;BME280;25173;50.430;18.926;2023-02-28T04:41:16;99481.16;;;2.57;48.99
39487;BME280;25173;50.430;18.926;2023-02-28T04:44:17;99482.56;;;2.53;49.16
39487;BME280;25173;50.430;18.926;2023-02-28T04:47:17;99485.06;;;2.54;49.20
39487;BME280;25173;50.430;18.926;2023-02-28T04:50:18;99491.84;;;2.50;49.17
39487;BME280;25173;50.430;18.926;2023-02-28T04:53:19;99497.22;;;2.50;49.35
39487;BME280;25173;50.430;18.926;2023-02-28T04:56:20;99495.94;;;2.46;49.22
39487;BME280;25173;50.430;18.926;2023-02-28T04:59:20;99492.81;;;2.43;49.49
39487;BME280;25173;50.430;18.926;2023-02-28T05:02:21;99500.69;;;2.44;49.48
39487;BME280;25173;50.430;18.926;2023-02-28T05:05:22;99499.63;;;2.45;49.67
39487;BME280;25173;50.430;18.926;2023-02-28T05:08:22;99507.16;;;2.50;49.57
39487;BME280;25173;50.430;18.926;2023-02-28T05:14:24;99511.06;;;2.32;49.74
39487;BME280;25173;50.430;18.926;2023-02-28T05:17:25;99513.41;;;2.21;49.94
39487;BME280;25173;50.430;18.926;2023-02-28T05:20:26;99513.88;;;2.10;50.14
39487;BME280;25173;50.430;18.926;2023-02-28T05:23:26;99512.13;;;2.02;50.11
39487;BME280;25173;50.430;18.926;2023-02-28T05:26:29;99513.22;;;1.93;50.22
39487;BME280;25173;50.430;18.926;2023-02-28T05:29:30;99520.84;;;1.89;50.43
39487;BME280;25173;50.430;18.926;2023-02-28T05:32:30;99521.59;;;1.83;50.63
39487;BME280;25173;50.430;18.926;2023-02-28T05:35:31;99521.50;;;1.77;50.75
39487;BME280;25173;50.430;18.926;2023-02-28T05:38:32;99525.38;;;1.74;50.76
39487;BME280;25173;50.430;18.926;2023-02-28T05:41:32;99528.91;;;1.75;50.91
39487;BME280;25173;50.430;18.926;2023-02-28T05:44:33;99531.00;;;1.79;50.86
39487;BME280;25173;50.430;18.926;2023-02-28T05:47:34;99533.44;;;1.89;50.84
39487;BME280;25173;50.430;18.926;2023-02-28T05:50:35;99533.34;;;1.97;50.89
39487;BME280;25173;50.430;18.926;2023-02-28T05:53:36;99532.44;;;2.05;50.79
39487;BME280;25173;50.430;18.926;2023-02-28T05:56:37;99540.56;;;2.11;50.60
39487;BME280;25173;50.430;18.926;2023-02-28T05:59:40;99544.09;;;2.12;50.50
39487;BME280;25173;50.430;18.926;2023-02-28T06:02:41;99542.59;;;2.09;50.64
39487;BME280;25173;50.430;18.926;2023-02-28T06:05:50;99548.16;;;2.08;50.55
39487;BME280;25173;50.430;18.926;2023-02-28T06:08:55;99551.22;;;2.05;50.68
39487;BME280;25173;50.430;18.926;2023-02-28T06:12:02;99559.94;;;2.07;50.65
39487;BME280;25173;50.430;18.926;2023-02-28T06:15:04;99561.13;;;2.19;50.97
39487;BME280;25173;50.430;18.926;2023-02-28T06:18:16;99566.69;;;2.32;50.90
39487;BME280;25173;50.430;18.926;2023-02-28T06:21:16;99573.28;;;2.44;50.81
39487;BME280;25173;50.430;18.926;2023-02-28T06:24:17;99563.97;;;2.47;50.71
39487;BME280;25173;50.430;18.926;2023-02-28T06:27:17;99572.78;;;2.55;50.36
39487;BME280;25173;50.430;18.926;2023-02-28T06:30:18;99570.28;;;2.54;50.41
39487;BME280;25173;50.430;18.926;2023-02-28T06:33:19;99571.28;;;2.53;50.31
39487;BME280;25173;50.430;18.926;2023-02-28T06:36:39;99568.53;;;2.46;50.47
39487;BME280;25173;50.430;18.926;2023-02-28T06:39:39;99565.84;;;2.46;50.54
39487;BME280;25173;50.430;18.926;2023-02-28T06:42:40;99567.06;;;2.44;50.36
39487;BME280;25173;50.430;18.926;2023-02-28T06:45:42;99572.13;;;2.53;50.44
39487;BME280;25173;50.430;18.926;2023-02-28T06:48:45;99572.84;;;2.62;50.54
39487;BME280;25173;50.430;18.926;2023-02-28T06:51:45;99579.22;;;2.76;50.67
39487;BME280;25173;50.430;18.926;2023-02-28T06:54:46;99579.41;;;2.89;50.60
39487;BME280;25173;50.430;18.926;2023-02-28T06:57:46;99576.00;;;3.01;50.38
39487;BME280;25173;50.430;18.926;2023-02-28T07:00:50;99572.81;;;3.12;50.23
39487;BME280;25173;50.430;18.926;2023-02-28T07:03:51;99570.00;;;3.21;50.27
39487;BME280;25173;50.430;18.926;2023-02-28T07:06:53;99572.19;;;3.32;50.36
39487;BME280;25173;50.430;18.926;2023-02-28T07:09:56;99566.91;;;3.45;50.21
39487;BME280;25173;50.430;18.926;2023-02-28T07:12:56;99571.56;;;3.58;50.09
39487;BME280;25173;50.430;18.926;2023-02-28T07:16:00;99572.06;;;3.68;49.93
39487;BME280;25173;50.430;18.926;2023-02-28T07:19:01;99570.91;;;3.77;49.92
39487;BME280;25173;50.430;18.926;2023-02-28T07:22:02;99574.06;;;3.87;49.91
39487;BME280;25173;50.430;18.926;2023-02-28T07:25:03;99574.97;;;3.94;49.63
39487;BME280;25173;50.430;18.926;2023-02-28T07:28:04;99576.94;;;4.07;49.63
39487;BME280;25173;50.430;18.926;2023-02-28T07:31:05;99574.31;;;4.20;49.70
39487;BME280;25173;50.430;18.926;2023-02-28T07:34:06;99580.78;;;4.32;49.63
39487;BME280;25173;50.430;18.926;2023-02-28T07:37:07;99581.84;;;4.38;49.41
39487;BME280;25173;50.430;18.926;2023-02-28T07:40:10;99583.16;;;4.48;49.25
39487;BME280;25173;50.430;18.926;2023-02-28T07:43:13;99581.78;;;4.59;49.26
39487;BME280;25173;50.430;18.926;2023-02-28T07:46:15;99588.88;;;4.66;49.13
39487;BME280;25173;50.430;18.926;2023-02-28T07:49:16;99586.81;;;4.75;49.23
39487;BME280;25173;50.430;18.926;2023-02-28T07:52:17;99587.91;;;4.81;49.34
39487;BME280;25173;50.430;18.926;2023-02-28T07:55:17;99579.38;;;4.90;49.20
39487;BME280;25173;50.430;18.926;2023-02-28T07:58:18;99588.59;;;5.02;49.24
39487;BME280;25173;50.430;18.926;2023-02-28T08:01:19;99584.03;;;5.10;49.16
39487;BME280;25173;50.430;18.926;2023-02-28T08:04:20;99584.44;;;5.20;49.37
39487;BME280;25173;50.430;18.926;2023-02-28T08:07:20;99586.97;;;5.28;49.07
39487;BME280;25173;50.430;18.926;2023-02-28T08:10:21;99588.66;;;5.35;48.85
39487;BME280;25173;50.430;18.926;2023-02-28T08:13:22;99577.84;;;5.42;48.72
39487;BME280;25173;50.430;18.926;2023-02-28T08:16:22;99587.41;;;5.51;48.90
39487;BME280;25173;50.430;18.926;2023-02-28T08:19:23;99577.25;;;5.60;48.83
39487;BME280;25173;50.430;18.926;2023-02-28T08:22:23;99577.03;;;5.68;48.25
39487;BME280;25173;50.430;18.926;2023-02-28T08:25:24;99582.44;;;5.74;48.51
39487;BME280;25173;50.430;18.926;2023-02-28T08:28:25;99582.44;;;5.81;48.32
39487;BME280;25173;50.430;18.926;2023-02-28T08:31:25;99586.19;;;5.86;48.09
39487;BME280;25173;50.430;18.926;2023-02-28T08:34:26;99587.88;;;5.94;47.86
39487;BME280;25173;50.430;18.926;2023-02-28T08:37:26;99584.75;;;6.04;47.65
39487;BME280;25173;50.430;18.926;2023-02-28T08:40:27;99592.47;;;6.07;47.42
39487;BME280;25173;50.430;18.926;2023-02-28T08:43:28;99586.81;;;6.08;46.77
39487;BME280;25173;50.430;18.926;2023-02-28T08:46:29;99588.28;;;6.11;46.76
39487;BME280;25173;50.430;18.926;2023-02-28T08:49:29;99591.19;;;6.09;46.68
39487;BME280;25173;50.430;18.926;2023-02-28T08:52:30;99589.53;;;6.15;46.74
39487;BME280;25173;50.430;18.926;2023-02-28T08:55:30;99589.06;;;6.31;46.49
39487;BME280;25173;50.430;18.926;2023-02-28T08:58:31;99579.88;;;6.45;46.47
39487;BME280;25173;50.430;18.926;2023-02-28T09:01:32;99575.69;;;6.56;45.91
39487;BME280;25173;50.430;18.926;2023-02-28T09:04:33;99574.38;;;6.72;45.87
39487;BME280;25173;50.430;18.926;2023-02-28T09:07:34;99580.13;;;6.95;45.76
39487;BME280;25173;50.430;18.926;2023-02-28T09:10:35;99580.41;;;7.12;45.24
39487;BME280;25173;50.430;18.926;2023-02-28T09:13:36;99581.63;;;7.22;45.25
39487;BME280;25173;50.430;18.926;2023-02-28T09:16:37;99588.25;;;7.26;45.24
39487;BME280;25173;50.430;18.926;2023-02-28T09:19:37;99585.28;;;7.34;44.79
39487;BME280;25173;50.430;18.926;2023-02-28T09:22:38;99583.81;;;7.38;44.62
39487;BME280;25173;50.430;18.926;2023-02-28T09:25:46;99583.72;;;7.52;44.40
39487;BME280;25173;50.430;18.926;2023-02-28T09:28:51;99585.94;;;7.61;44.47
39487;BME280;25173;50.430;18.926;2023-02-28T09:31:52;99584.72;;;7.57;43.86
39487;BME280;25173;50.430;18.926;2023-02-28T09:34:53;99583.66;;;7.58;44.20
39487;BME280;25173;50.430;18.926;2023-02-28T09:37:54;99587.22;;;7.59;44.02
39487;BME280;25173;50.430;18.926;2023-02-28T09:40:58;99581.38;;;7.62;44.10
39487;BME280;25173;50.430;18.926;2023-02-28T09:44:01;99578.88;;;7.60;43.86
39487;BME280;25173;50.430;18.926;2023-02-28T09:47:28;99590.38;;;7.56;43.05
39487;BME280;25173;50.430;18.926;2023-02-28T09:50:35;99585.22;;;7.48;43.90
39487;BME280;25173;50.430;18.926;2023-02-28T09:53:37;99593.09;;;7.56;43.96
39487;BME280;25173;50.430;18.926;2023-02-28T09:56:40;99587.66;;;7.56;43.58
39487;BME280;25173;50.430;18.926;2023-02-28T10:06:22;99598.09;;;7.52;43.89
39487;BME280;25173;50.430;18.926;2023-02-28T10:09:30;99588.72;;;7.55;43.90
39487;BME280;25173;50.430;18.926;2023-02-28T10:12:32;99585.53;;;7.58;43.66
39487;BME280;25173;50.430;18.926;2023-02-28T10:15:34;99590.59;;;7.54;43.51
39487;BME280;25173;50.430;18.926;2023-02-28T10:18:43;99591.16;;;7.63;43.36
39487;BME280;25173;50.430;18.926;2023-02-28T10:21:52;99593.41;;;7.66;43.39
39487;BME280;25173;50.430;18.926;2023-02-28T10:24:55;99587.88;;;7.79;43.74
39487;BME280;25173;50.430;18.926;2023-02-28T10:28:20;99581.78;;;8.08;43.02
39487;BME280;25173;50.430;18.926;2023-02-28T10:31:21;99569.03;;;8.34;43.34
39487;BME280;25173;50.430;18.926;2023-02-28T10:34:21;99583.22;;;8.54;43.04
39487;BME280;25173;50.430;18.926;2023-02-28T10:37:22;99570.19;;;8.63;42.73
39487;BME280;25173;50.430;18.926;2023-02-28T10:43:23;99581.72;;;8.58;42.35
39487;BME280;25173;50.430;18.926;2023-02-28T10:46:25;99581.44;;;8.66;42.38
39487;BME280;25173;50.430;18.926;2023-02-28T10:49:27;99577.50;;;8.62;42.08
39487;BME280;25173;50.430;18.926;2023-02-28T10:52:37;99576.88;;;8.60;41.88
39487;BME280;25173;50.430;18.926;2023-02-28T10:55:38;99562.78;;;8.70;41.96
39487;BME280;25173;50.430;18.926;2023-02-28T11:01:49;99569.94;;;8.82;42.08
39487;BME280;25173;50.430;18.926;2023-02-28T11:04:52;99562.78;;;8.88;41.87
39487;BME280;25173;50.430;18.926;2023-02-28T11:08:10;99560.16;;;8.81;41.81
39487;BME280;25173;50.430;18.926;2023-02-28T11:11:13;99558.31;;;8.93;42.13
39487;BME280;25173;50.430;18.926;2023-02-28T11:14:28;99550.47;;;9.15;41.46
39487;BME280;25173;50.430;18.926;2023-02-28T11:17:31;99552.03;;;9.23;41.52
39487;BME280;25173;50.430;18.926;2023-02-28T11:20:33;99550.50;;;9.27;41.49
39487;BME280;25173;50.430;18.926;2023-02-28T11:23:36;99549.84;;;9.43;40.91
39487;BME280;25173;50.430;18.926;2023-02-28T11:26:43;99535.00;;;9.69;41.45
39487;BME280;25173;50.430;18.926;2023-02-28T11:29:47;99532.91;;;10.06;41.52
39487;BME280;25173;50.430;18.926;2023-02-28T11:32:49;99536.69;;;10.40;41.16
39487;BME280;25173;50.430;18.926;2023-02-28T11:35:51;99528.09;;;10.71;40.82
39487;BME280;25173;50.430;18.926;2023-02-28T11:38:59;99526.44;;;10.99;40.45
39487;BME280;25173;50.430;18.926;2023-02-28T11:42:23;99526.59;;;11.20;37.93
39487;BME280;25173;50.430;18.926;2023-02-28T11:49:10;99510.91;;;10.71;38.72
39487;BME280;25173;50.430;18.926;2023-02-28T11:59:02;99511.34;;;11.36;39.50
39487;BME280;25173;50.430;18.926;2023-02-28T12:02:37;99501.84;;;11.39;39.17
39487;BME280;25173;50.430;18.926;2023-02-28T12:05:54;99507.97;;;11.46;39.55
39487;BME280;25173;50.430;18.926;2023-02-28T12:19:08;99489.13;;;11.61;38.44
39487;BME280;25173;50.430;18.926;2023-02-28T12:25:54;99495.47;;;11.66;38.33
39487;BME280;25173;50.430;18.926;2023-02-28T12:29:04;99481.66;;;11.73;38.73
39487;BME280;25173;50.430;18.926;2023-02-28T12:32:22;99486.66;;;11.76;38.30
39487;BME280;25173;50.430;18.926;2023-02-28T12:35:32;99472.00;;;11.82;38.66
39487;BME280;25173;50.430;18.926;2023-02-28T12:39:00;99468.22;;;11.83;37.79
39487;BME280;25173;50.430;18.926;2023-02-28T12:42:10;99471.22;;;12.03;38.43
39487;BME280;25173;50.430;18.926;2023-02-28T12:45:23;99468.31;;;12.10;37.78
39487;BME280;25173;50.430;18.926;2023-02-28T12:48:41;99467.56;;;12.15;37.55
39487;BME280;25173;50.430;18.926;2023-02-28T12:51:44;99463.75;;;12.16;37.86
39487;BME280;25173;50.430;18.926;2023-02-28T13:10:40;99449.94;;;12.44;37.81
39487;BME280;25173;50.430;18.926;2023-02-28T13:13:44;99449.72;;;12.72;37.61
39487;BME280;25173;50.430;18.926;2023-02-28T13:22:55;99444.81;;;12.74;36.90
39487;BME280;25173;50.430;18.926;2023-02-28T13:25:57;99453.56;;;12.76;36.91
39487;BME280;25173;50.430;18.926;2023-02-28T13:29:00;99450.00;;;12.76;37.17
39487;BME280;25173;50.430;18.926;2023-02-28T13:38:16;99456.53;;;12.97;36.48
39487;BME280;25173;50.430;18.926;2023-02-28T13:44:29;99454.94;;;13.01;36.90
39487;BME280;25173;50.430;18.926;2023-02-28T13:47:33;99459.16;;;12.87;36.69
39487;BME280;25173;50.430;18.926;2023-02-28T13:50:36;99462.97;;;12.86;37.07
39487;BME280;25173;50.430;18.926;2023-02-28T13:53:57;99456.47;;;12.92;35.66
39487;BME280;25173;50.430;18.926;2023-02-28T13:57:15;99448.81;;;12.89;36.01
39487;BME280;25173;50.430;18.926;2023-02-28T14:07:27;99443.59;;;13.14;36.52
39487;BME280;25173;50.430;18.926;2023-02-28T14:13:43;99433.16;;;13.11;35.35
39487;BME280;25173;50.430;18.926;2023-02-28T14:16:46;99433.16;;;13.11;36.39
39487;BME280;25173;50.430;18.926;2023-02-28T14:19:48;99439.56;;;13.21;36.36
39487;BME280;25173;50.430;18.926;2023-02-28T14:23:05;99430.59;;;13.26;35.32
39487;BME280;25173;50.430;18.926;2023-02-28T14:33:01;99425.78;;;13.43;35.38
39487;BME280;25173;50.430;18.926;2023-02-28T14:36:35;99421.53;;;13.57;35.62
39487;BME280;25173;50.430;18.926;2023-02-28T14:39:36;99421.88;;;13.71;35.41
39487;BME280;25173;50.430;18.926;2023-02-28T14:42:47;99420.41;;;13.53;34.84
39487;BME280;25173;50.430;18.926;2023-02-28T14:45:51;99418.72;;;13.47;35.26
39487;BME280;25173;50.430;18.926;2023-02-28T14:48:52;99414.84;;;13.43;35.20
39487;BME280;25173;50.430;18.926;2023-02-28T14:52:06;99413.47;;;13.41;34.50
39487;BME280;25173;50.430;18.926;2023-02-28T14:55:14;99411.88;;;13.50;34.88
39487;BME280;25173;50.430;18.926;2023-02-28T14:58:34;99409.31;;;13.70;33.68
39487;BME280;25173;50.430;18.926;2023-02-28T15:01:34;99409.69;;;13.89;34.40
39487;BME280;25173;50.430;18.926;2023-02-28T15:04:35;99408.13;;;14.03;34.06
39487;BME280;25173;50.430;18.926;2023-02-28T15:07:36;99404.34;;;14.14;34.18
39487;BME280;25173;50.430;18.926;2023-02-28T15:10:37;99413.09;;;14.16;33.76
39487;BME280;25173;50.430;18.926;2023-02-28T15:13:46;99409.25;;;14.07;33.34
39487;BME280;25173;50.430;18.926;2023-02-28T15:16:52;99414.16;;;14.00;34.09
39487;BME280;25173;50.430;18.926;2023-02-28T15:19:55;99414.66;;;13.92;33.88
39487;BME280;25173;50.430;18.926;2023-02-28T15:22:56;99417.91;;;13.89;33.97
39487;BME280;25173;50.430;18.926;2023-02-28T15:25:58;99416.81;;;13.90;33.89
39487;BME280;25173;50.430;18.926;2023-02-28T15:29:07;99409.44;;;13.90;34.04
39487;BME280;25173;50.430;18.926;2023-02-28T15:32:23;99417.63;;;13.85;33.48
39487;BME280;25173;50.430;18.926;2023-02-28T15:38:27;99409.22;;;13.55;34.23
39487;BME280;25173;50.430;18.926;2023-02-28T15:41:36;99412.38;;;13.42;34.13
39487;BME280;25173;50.430;18.926;2023-02-28T15:44:39;99407.78;;;13.15;34.21
39487;BME280;25173;50.430;18.926;2023-02-28T15:47:46;99411.88;;;12.91;34.45
39487;BME280;25173;50.430;18.926;2023-02-28T15:50:51;99406.47;;;12.69;34.71
39487;BME280;25173;50.430;18.926;2023-02-28T15:54:01;99409.25;;;12.48;34.59
39487;BME280;25173;50.430;18.926;2023-02-28T15:57:06;99410.91;;;12.27;34.89
39487;BME280;25173;50.430;18.926;2023-02-28T16:00:13;99412.84;;;11.88;35.19
39487;BME280;25173;50.430;18.926;2023-02-28T16:03:34;99406.44;;;11.44;34.89
39487;BME280;25173;50.430;18.926;2023-02-28T16:09:39;99417.38;;;10.82;35.96
39487;BME280;25173;50.430;18.926;2023-02-28T16:12:42;99420.03;;;10.48;36.25
39487;BME280;25173;50.430;18.926;2023-02-28T16:15:43;99411.94;;;10.13;36.43
39487;BME280;25173;50.430;18.926;2023-02-28T16:18:45;99416.13;;;9.81;36.65
39487;BME280;25173;50.430;18.926;2023-02-28T16:21:45;99412.34;;;9.59;36.74
39487;BME280;25173;50.430;18.926;2023-02-28T16:24:46;99412.34;;;9.35;36.90
39487;BME280;25173;50.430;18.926;2023-02-28T16:27:49;99415.41;;;9.16;36.87
39487;BME280;25173;50.430;18.926;2023-02-28T16:30:51;99424.47;;;8.98;36.98
39487;BME280;25173;50.430;18.926;2023-02-28T16:33:52;99430.66;;;8.75;37.12
39487;BME280;25173;50.430;18.926;2023-02-28T16:36:53;99434.72;;;8.54;37.31
39487;BME280;25173;50.430;18.926;2023-02-28T16:39:53;99429.91;;;8.38;37.41
39487;BME280;25173;50.430;18.926;2023-02-28T16:42:57;99435.13;;;8.22;37.66
39487;BME280;25173;50.430;18.926;2023-02-28T16:45:59;99432.63;;;8.02;37.51
39487;BME280;25173;50.430;18.926;2023-02-28T16:49:01;99438.44;;;7.87;38.12
39487;BME280;25173;50.430;18.926;2023-02-28T16:52:02;99434.50;;;7.65;38.00
39487;BME280;25173;50.430;18.926;2023-02-28T16:55:03;99438.09;;;7.40;38.62
39487;BME280;25173;50.430;18.926;2023-02-28T16:58:04;99441.00;;;7.14;38.91
39487;BME280;25173;50.430;18.926;2023-02-28T17:01:04;99441.19;;;6.88;39.33
39487;BME280;25173;50.430;18.926;2023-02-28T17:04:05;99446.09;;;6.73;39.59
39487;BME280;25173;50.430;18.926;2023-02-28T17:07:11;99442.41;;;6.60;39.99
39487;BME280;25173;50.430;18.926;2023-02-28T17:10:19;99440.56;;;6.54;40.20
39487;BME280;25173;50.430;18.926;2023-02-28T17:13:19;99450.59;;;6.47;39.77
39487;BME280;25173;50.430;18.926;2023-02-28T17:16:30;99443.16;;;6.36;40.35
39487;BME280;25173;50.430;18.926;2023-02-28T17:19:30;99446.53;;;6.25;40.78
39487;BME280;25173;50.430;18.926;2023-02-28T17:22:32;99450.53;;;6.09;41.09
39487;BME280;25173;50.430;18.926;2023-02-28T17:25:32;99453.50;;;5.95;41.60
39487;BME280;25173;50.430;18.926;2023-02-28T17:28:33;99458.09;;;5.81;41.72
39487;BME280;25173;50.430;18.926;2023-02-28T17:31:33;99460.19;;;5.66;42.02
39487;BME280;25173;50.430;18.926;2023-02-28T17:34:38;99450.22;;;5.66;42.04
39487;BME280;25173;50.430;18.926;2023-02-28T17:37:39;99454.81;;;5.59;42.07
39487;BME280;25173;50.430;18.926;2023-02-28T17:40:40;99456.88;;;5.51;42.31
39487;BME280;25173;50.430;18.926;2023-02-28T17:43:41;99462.31;;;5.44;42.34
39487;BME280;25173;50.430;18.926;2023-02-28T17:46:41;99460.25;;;5.33;42.36
39487;BME280;25173;50.430;18.926;2023-02-28T17:49:43;99461.69;;;5.22;42.55
39487;BME280;25173;50.430;18.926;2023-02-28T17:52:44;99461.91;;;5.14;42.84
39487;BME280;25173;50.430;18.926;2023-02-28T17:55:44;99456.50;;;5.07;43.11
39487;BME280;25173;50.430;18.926;2023-02-28T17:58:45;99465.44;;;5.01;43.30
39487;BME280;25173;50.430;18.926;2023-02-28T18:01:46;99458.56;;;4.92;43.48
39487;BME280;25173;50.430;18.926;2023-02-28T18:04:46;99460.63;;;4.84;43.59
39487;BME280;25173;50.430;18.926;2023-02-28T18:07:47;99463.31;;;4.77;43.90
39487;BME280;25173;50.430;18.926;2023-02-28T18:10:47;99458.94;;;4.69;44.18
39487;BME280;25173;50.430;18.926;2023-02-28T18:13:50;99463.47;;;4.62;44.39
39487;BME280;25173;50.430;18.926;2023-02-28T18:16:52;99457.88;;;4.57;44.49
39487;BME280;25173;50.430;18.926;2023-02-28T18:19:54;99468.84;;;4.56;44.67
39487;BME280;25173;50.430;18.926;2023-02-28T18:22:54;99463.88;;;4.53;44.76
39487;BME280;25173;50.430;18.926;2023-02-28T18:25:55;99460.97;;;4.54;45.00
39487;BME280;25173;50.430;18.926;2023-02-28T18:28:56;99456.41;;;4.61;44.95
39487;BME280;25173;50.430;18.926;2023-02-28T18:31:56;99457.25;;;4.55;44.95